Decoded Metar for PAKV (KALTAG in AK, USA) (IATA:KAL) | Meteo·Mobile Aviation Weather
aviador You're here:

PAKV Decoded Metar

KALTAG in AK, USA
Report Time2019-04-24 12:53:00
UTC Time2019-04-24 13:49:12
Flight Rules vfr VFR
WindCalm
Visibility9999 m
Phenomena:N/A
Clouds:Scattered 120 Hf
Expected CloudBase > 400 ft AGL from Temp-Dew spread
CeilingNone
Temp-9°C (ISA -24)
Dew Point-10°C (93% RH)
AAT-12.1°C
QNH1018 hPa
Density Alt-2,877 ft
Elevation200 ft
Report Wrong Elevation
Raw Report
PAKV 241253Z AUTO 00000KT 10SM SCT120 M09/M10 A3007 RMK UPE50
SLP189 P0000 T10891100 TSNO VIA AUTODIAL=

Extra information for PAKV:More info

Metar Taf Metar & Taf Last 4 Metars F.Rules Stats Wind Profile Meteogram Temp Stats Airport Information Weather charts Add Link Nearby VenuesMetar ALERT Operation Metar Decoded Social comments

AIRNAV info for PAKV